Terminal Aerodrome Forecast
Issued by NWS

Home | Current Version | Previous Version | Graphics & Text | Print | Product List | Glossary On
Versions: 1 2 3 4 5 6 7 8 9 10 11 12 13 14 15 16 17 18 19
281
FTUS43 KGRB 040525
TAFAUW
TAF
KAUW 040525Z 0406/0506 30006KT P6SM SCT025 OVC035
      TEMPO 0406/0407 BKN025
     FM040800 29004KT P6SM SCT025 BKN250
     FM041500 22005KT P6SM SCT035 BKN070
     FM042000 19005KT 3SM -SN BR OVC020
      TEMPO 0420/0424 1 1/2SM -SN BR BKN010
     FM050200 28005KT P6SM SCT012 BKN025=

USA.gov is the U.S. government's official web portal to all federal, state and local government web resources and services.